Terminal Aerodrome Forecast
Issued by NWS

Home | Current Version | Previous Version | Text Only | Print | Product List | Glossary On
Versions: 1 2 3 4 5 6 7 8 9 10 11 12 13 14 15
000
FTUS43 KGLD 211144
TAFMCK
TAF
KMCK 211144Z 2112/2212 22007KT P6SM SCT200
     FM211800 16005KT P6SM FEW250
     FM220000 09006KT P6SM SCT120 SCT250
     FM220500 03005KT P6SM SCT250=

USA.gov is the U.S. government's official web portal to all federal, state and local government web resources and services.